Time;durP1;ratioP1;P1;durP2;ratioP2;P2;SDS_P1;SDS_P2;PMS_P1;PMS_P2;Temp;Humidity;BMP_temperature;BMP_pressure;BME280_temperature;BME280_humidity;BME280_pressure;Samples;Min_cycle;Max_cycle;Signal;HPM_P1;HPM_P2
2023/12/12 00:13:49;;;;;;;165.60;44.00;;;;;;;6.31;100.00;98808.05;674781;1257;139775;-89
2023/12/12 00:29:26;;;;;;;73.50;24.00;;;;;;;5.95;100.00;98828.56;676320;1262;139650;-89
2023/12/12 00:45:04;;;;;;;98.30;31.30;;;;;;;5.54;100.00;98843.45;678140;1260;138268;-89
2023/12/12 01:00:41;;;;;;;53.20;22.30;;;;;;;5.16;100.00;98854.70;676766;1269;139315;-88
2023/12/12 01:16:18;;;;;;;67.80;23.90;;;;;;;4.91;100.00;98879.38;676608;1261;140626;-89
2023/12/12 01:31:58;;;;;;;68.10;24.10;;;;;;;5.39;100.00;98884.58;675786;1260;139116;-89
2023/12/12 01:47:35;;;;;;;80.00;26.70;;;;;;;5.06;99.92;98903.16;677721;1260;139707;-88
2023/12/12 02:03:12;;;;;;;79.30;29.60;;;;;;;4.77;100.00;98922.52;673365;1260;139301;-87
2023/12/12 02:18:49;;;;;;;59.70;23.90;;;;;;;5.26;99.84;98933.54;679028;1273;139332;-89
2023/12/12 02:34:26;;;;;;;66.20;26.20;;;;;;;5.61;99.64;98947.47;667361;1272;139178;-88
2023/12/12 02:50:03;;;;;;;77.40;35.60;;;;;;;5.67;99.09;98960.66;675866;1262;139090;-88
2023/12/12 03:05:40;;;;;;;67.60;31.10;;;;;;;5.68;99.10;98970.23;672611;1256;138502;-88
2023/12/12 03:21:17;;;;;;;87.40;39.80;;;;;;;5.77;99.44;98979.72;675078;1260;138451;-89
2023/12/12 03:36:54;;;;;;;60.70;28.00;;;;;;;5.68;98.84;98989.50;675078;1260;139403;-88
2023/12/12 03:52:31;;;;;;;92.30;38.40;;;;;;;5.69;98.61;98993.80;674082;1259;140438;-87
2023/12/12 04:08:08;;;;;;;80.30;36.50;;;;;;;5.80;97.87;99023.50;674912;1260;138653;-87
2023/12/12 04:23:45;;;;;;;68.70;33.70;;;;;;;5.84;98.35;99026.13;673827;1263;139604;-87
2023/12/12 04:39:22;;;;;;;106.30;46.60;;;;;;;5.73;97.98;99053.45;674737;1260;138426;-86
2023/12/12 04:54:59;;;;;;;93.10;40.50;;;;;;;5.67;97.90;99055.66;675286;1260;139270;-86
2023/12/12 05:10:36;;;;;;;110.20;47.60;;;;;;;5.73;97.81;99070.77;674876;1259;139152;-86
2023/12/12 05:26:13;;;;;;;83.20;40.40;;;;;;;5.82;98.17;99104.70;677957;1257;139411;-86
2023/12/12 05:41:50;;;;;;;73.90;32.20;;;;;;;5.84;98.70;99136.11;675308;1260;139601;-86
2023/12/12 05:57:27;;;;;;;71.70;33.50;;;;;;;5.93;99.01;99146.48;674507;1272;138932;-86
2023/12/12 06:13:04;;;;;;;86.20;40.60;;;;;;;5.90;98.47;99147.08;675807;1257;139060;-88
2023/12/12 06:28:42;;;;;;;61.30;29.50;;;;;;;5.95;99.17;99164.66;675195;1260;139024;-87
2023/12/12 06:44:18;;;;;;;96.20;37.60;;;;;;;5.98;98.40;99184.09;675499;1262;139139;-87
2023/12/12 06:59:56;;;;;;;97.60;43.60;;;;;;;6.05;97.77;99195.77;673252;1261;140008;-89
2023/12/12 07:15:34;;;;;;;104.00;41.80;;;;;;;5.81;98.67;99214.13;677047;1260;139179;-88
2023/12/12 07:31:11;;;;;;;168.30;64.80;;;;;;;5.95;98.71;99237.39;675863;1260;138872;-89
2023/12/12 07:46:48;;;;;;;115.00;39.20;;;;;;;5.97;98.88;99252.70;678439;1272;138930;-88
2023/12/12 08:02:27;;;;;;;112.20;41.30;;;;;;;5.98;99.51;99273.83;679643;1260;139509;-87
2023/12/12 08:18:04;;;;;;;176.90;65.20;;;;;;;6.23;99.49;99288.88;678394;1260;138570;-89
2023/12/12 08:33:44;;;;;;;113.40;40.80;;;;;;;6.34;99.81;99302.91;677609;1258;139333;-88
2023/12/12 08:49:22;;;;;;;;;;;;;;;6.36;100.00;99314.38;677135;1262;139009;-87
2023/12/12 09:04:59;;;;;;;92.30;42.00;;;;;;;6.45;100.00;99324.35;676224;1263;125807;-89
2023/12/12 09:20:37;;;;;;;87.60;32.10;;;;;;;6.56;100.00;99327.41;677537;1260;138781;-88
2023/12/12 09:36:21;;;;;;;93.90;34.60;;;;;;;6.61;100.00;99337.91;677202;1260;139332;-89
2023/12/12 09:52:02;;;;;;;65.90;27.00;;;;;;;6.63;100.00;99337.20;678306;1262;138102;-88
2023/12/12 10:07:42;;;;;;;56.40;22.80;;;;;;;6.71;100.00;99344.66;677671;1262;139575;-87
2023/12/12 10:23:34;;;;;;;122.90;49.40;;;;;;;6.69;100.00;99357.94;676628;1258;139096;-88
2023/12/12 10:39:17;;;;;;;99.40;41.20;;;;;;;6.74;100.00;99358.66;674029;1262;139433;-88
2023/12/12 10:54:55;;;;;;;83.30;34.40;;;;;;;6.64;100.00;99365.48;678051;1256;138981;-88
2023/12/12 11:10:33;;;;;;;64.90;26.50;;;;;;;6.68;100.00;99365.48;679813;1257;139155;-89
2023/12/12 11:26:11;;;;;;;115.20;43.10;;;;;;;6.71;100.00;99364.64;679374;1260;139042;-86
2023/12/12 11:41:49;;;;;;;56.00;26.20;;;;;;;6.82;100.00;99368.77;681293;1263;140442;-86
2023/12/12 11:57:25;;;;;;;41.20;19.60;;;;;;;6.98;100.00;99387.15;682559;1261;140354;-87
2023/12/12 12:13:04;;;;;;;241.90;79.70;;;;;;;7.25;99.90;99400.37;679999;1263;139611;-86
2023/12/12 12:28:41;;;;;;;48.20;22.90;;;;;;;7.47;98.39;99405.70;682928;1260;139897;-87
2023/12/12 12:44:20;;;;;;;53.90;33.30;;;;;;;7.55;98.17;99416.86;680785;1261;140410;-88
2023/12/12 12:59:56;;;;;;;58.50;25.10;;;;;;;7.63;97.81;99427.27;678522;1260;138572;-88
2023/12/12 13:15:34;;;;;;;44.00;21.10;;;;;;;7.70;97.52;99434.84;676798;1260;139192;-87
2023/12/12 13:31:12;;;;;;;39.50;16.60;;;;;;;7.72;96.71;99437.96;676160;1260;139843;-89
2023/12/12 13:46:51;;;;;;;25.30;11.70;;;;;;;7.69;96.25;99436.84;676873;1262;138887;-88
2023/12/12 14:02:38;;;;;;;86.80;43.00;;;;;;;7.75;95.98;99443.40;676707;1263;140812;-87
2023/12/12 14:18:23;;;;;;;345.20;104.10;;;;;;;7.73;95.49;99446.08;676698;1263;140288;-86
2023/12/12 14:34:17;;;;;;;143.70;47.70;;;;;;;7.60;95.52;99456.24;664939;1263;10175305;-87
2023/12/12 14:49:55;;;;;;;147.70;56.60;;;;;;;7.47;95.70;99471.09;679327;1263;138922;-88
2023/12/12 15:05:38;;;;;;;53.00;23.20;;;;;;;7.49;95.56;99478.42;674357;1275;139311;-89
2023/12/12 15:21:15;;;;;;;84.80;32.90;;;;;;;7.45;95.27;99483.66;676486;1262;139302;-88
2023/12/12 15:36:53;;;;;;;98.10;35.70;;;;;;;7.42;95.24;99481.45;673675;1270;138596;-88
2023/12/12 15:52:30;;;;;;;88.00;36.60;;;;;;;7.37;95.26;99482.10;676248;1263;139102;-88
2023/12/12 16:08:08;;;;;;;114.40;52.60;;;;;;;7.37;95.15;99481.73;675533;1259;138974;-85
2023/12/12 16:23:44;;;;;;;155.60;63.50;;;;;;;7.43;95.24;99481.90;677205;1263;140747;-88
2023/12/12 16:39:21;;;;;;;219.80;83.10;;;;;;;7.48;94.85;99481.52;676659;1262;139428;-87
2023/12/12 16:55:02;;;;;;;189.40;68.10;;;;;;;7.47;94.46;99492.67;677284;1259;140615;-90
2023/12/12 17:10:38;;;;;;;172.80;66.60;;;;;;;7.48;94.26;99493.30;677161;1273;139793;-90
2023/12/12 17:26:16;;;;;;;138.10;59.50;;;;;;;7.49;93.36;99488.52;674874;1260;139442;-88
2023/12/12 17:41:53;;;;;;;131.10;51.10;;;;;;;7.45;93.55;99492.20;677702;1261;139830;-88
2023/12/12 17:57:33;;;;;;;114.90;42.70;;;;;;;7.47;93.55;99492.89;672847;1260;139089;-87
2023/12/12 18:13:12;;;;;;;101.20;36.30;;;;;;;7.42;93.48;99484.56;676548;1258;140885;-87
2023/12/12 18:28:56;;;;;;;89.00;37.30;;;;;;;7.38;93.70;99488.14;674767;1261;139686;-88
2023/12/12 18:44:33;;;;;;;134.00;55.90;;;;;;;7.41;93.17;99486.42;677677;1257;139293;-88
2023/12/12 19:00:12;;;;;;;114.30;48.30;;;;;;;7.28;93.31;99499.04;676758;1260;140587;-89
2023/12/12 19:15:51;;;;;;;153.80;68.20;;;;;;;7.25;93.48;99502.92;674366;1260;139422;-89
2023/12/12 19:31:29;;;;;;;113.40;43.40;;;;;;;7.23;93.40;99508.36;678251;1257;140092;-88
2023/12/12 19:47:09;;;;;;;130.00;50.40;;;;;;;7.30;93.12;99508.08;676021;1269;138999;-87
2023/12/12 20:02:48;;;;;;;128.30;57.00;;;;;;;7.28;92.64;99511.58;678704;1260;140015;-90
2023/12/12 20:18:58;;;;;;;124.40;44.10;;;;;;;7.24;93.08;99509.42;677650;1260;140256;-88
2023/12/12 20:34:36;;;;;;;102.60;41.80;;;;;;;7.28;92.60;99505.65;679112;1260;139366;-88
2023/12/12 20:50:14;;;;;;;109.50;41.50;;;;;;;7.16;92.76;99511.32;677272;1260;139953;-88
2023/12/12 21:05:52;;;;;;;152.90;55.80;;;;;;;7.24;92.74;99502.16;676400;1260;139345;-88
2023/12/12 21:21:30;;;;;;;106.10;42.70;;;;;;;7.20;92.78;99503.72;678795;1263;140136;-88
2023/12/12 21:37:07;;;;;;;116.60;41.60;;;;;;;7.19;92.92;99507.14;677736;1263;140868;-88
2023/12/12 21:52:44;;;;;;;105.20;32.70;;;;;;;7.16;93.31;99509.10;673850;1260;139327;-87
2023/12/12 22:08:21;;;;;;;79.40;24.60;;;;;;;7.14;93.41;99508.94;677453;1262;138779;-88
2023/12/12 22:24:00;;;;;;;105.10;32.80;;;;;;;7.17;93.61;99521.36;680433;1263;139134;-87
2023/12/12 22:39:37;;;;;;;82.50;28.60;;;;;;;7.16;93.64;99526.17;675616;1260;139455;-89
2023/12/12 22:55:14;;;;;;;101.20;30.60;;;;;;;7.16;93.75;99526.66;679438;1272;139154;-86
2023/12/12 23:10:51;;;;;;;112.60;36.90;;;;;;;7.19;93.32;99513.41;680451;1260;139404;-87
2023/12/12 23:26:29;;;;;;;91.00;30.10;;;;;;;7.15;93.14;99506.90;679838;1263;139760;-87
2023/12/12 23:42:06;;;;;;;150.00;47.60;;;;;;;7.12;93.22;99496.10;676926;1257;139184;-87
2023/12/12 23:57:43;;;;;;;127.60;40.60;;;;;;;7.06;93.14;99486.69;677041;1260;139296;-88
